Etusivu
METAR-TAF:

METAR-TAF

Lentoasemat :

Keokuk Municipal Airport

Keokuk, Iowa, Yhdysvallat

Leveyspiiri: 40-28N, Pituuspiiri: 091-26W, korkeus merenpinnasta: 205 m

Tämänhetkinen sää

Tämä raportti tehtiin 10 minuuttia sitten, kello 22.35 UTC
Tuuli 14 kn pohjoisen/luoteesta puuskistuen 21 kn:hen
Lämpötila -6°C
Kosteus 53%
Ilmanpaine 1031 hPa
Näkyvyys: 16.1 km
selkeää

METAR: KEOK 112235Z AUTO 34014G21KT 10SM CLR M06/M14 A3045 RMK AO2

Aika: 16:45 (22:45 UTC)


TAF: puuttuu

Säähavainnot ja -ennusteet yli 4000 lentoasemalta (METAR- ja TAF-raportit).

Käytössä olevat sääasemat on merkitty karttaan keltaisilla ja punaisilla pisteillä.

Aseta hiiri pisteen päälle nähdäksesi sääaseman nimen.

Klikkaa sitten nähdäksesi säähavainnot ja -ennusteet.

Kartan vaihtaminen: klikkaa mustalla rastilla varustettuja vihreitä pisteitä, niin voit zoomata sisään; viivalla varustettua vihreää pistettä, niin voit zoomata ulos tai vihreitä nuolia, niin pääset viereisille kartoille.


METAR-TAF: